Methuen, Massachusetts
Current Conditions -  °F | °C
As of 7:54 PM on Friday 24 Oct 2014 (Local Time) from KLWM Reporting Station
Overcast Overcast  
Wind Chill: 45°   Ceiling: 4200
Heat Index: 49°   Visibility: 10mi
Dew Point: 42°   Wind: 8mph
Humidity: 77%   Direction: 310°NW
Pressure: 29.74"   Gusts: NA
Location:  42.73°N, 71.19°W
Report Text: KLWM 242354Z 31007KT 10SM FEW023 OVC042 09/06 A2974 RMK AO2 SLP072 T00940056 10117 20094 50007
Loading
Personal Weather Stations






























Interactive Weather Map
Tropical Storm Tracking
New forecast layout! Learn more

10-Day Weather Forecast

Advertisements
Track Severe Weather on mobile